sensor_id;sensor_type;location;lat;lon;timestamp;P1;durP1;ratioP1;P2;durP2;ratioP2
2175;SDS011;1094;49.902;10.876;2022-10-18T00:01:11;20.43;;;10.50;;
2175;SDS011;1094;49.902;10.876;2022-10-18T00:03:37;13.50;;;10.30;;
2175;SDS011;1094;49.902;10.876;2022-10-18T00:06:03;14.70;;;10.10;;
2175;SDS011;1094;49.902;10.876;2022-10-18T00:08:30;17.37;;;10.80;;
2175;SDS011;1094;49.902;10.876;2022-10-18T00:10:56;16.87;;;10.70;;
2175;SDS011;1094;49.902;10.876;2022-10-18T00:13:22;11.00;;;9.87;;
2175;SDS011;1094;49.902;10.876;2022-10-18T00:15:49;18.17;;;10.20;;
2175;SDS011;1094;49.902;10.876;2022-10-18T00:18:15;18.10;;;11.47;;
2175;SDS011;1094;49.902;10.876;2022-10-18T00:20:42;11.90;;;10.70;;
2175;SDS011;1094;49.902;10.876;2022-10-18T00:23:08;16.73;;;12.10;;
2175;SDS011;1094;49.902;10.876;2022-10-18T00:25:34;14.40;;;11.37;;
2175;SDS011;1094;49.902;10.876;2022-10-18T00:28:00;20.13;;;11.40;;
2175;SDS011;1094;49.902;10.876;2022-10-18T00:30:25;14.50;;;10.70;;
2175;SDS011;1094;49.902;10.876;2022-10-18T00:32:51;13.67;;;10.50;;
2175;SDS011;1094;49.902;10.876;2022-10-18T00:35:17;17.30;;;10.33;;
2175;SDS011;1094;49.902;10.876;2022-10-18T00:37:43;13.13;;;11.07;;
2175;SDS011;1094;49.902;10.876;2022-10-18T00:40:10;12.13;;;10.47;;
2175;SDS011;1094;49.902;10.876;2022-10-18T00:42:36;23.93;;;11.30;;
2175;SDS011;1094;49.902;10.876;2022-10-18T00:45:13;14.10;;;9.90;;
2175;SDS011;1094;49.902;10.876;2022-10-18T00:47:40;19.37;;;10.93;;
2175;SDS011;1094;49.902;10.876;2022-10-18T00:50:07;18.33;;;10.13;;
2175;SDS011;1094;49.902;10.876;2022-10-18T00:52:37;15.63;;;10.13;;
2175;SDS011;1094;49.902;10.876;2022-10-18T00:55:04;16.53;;;10.20;;
2175;SDS011;1094;49.902;10.876;2022-10-18T00:57:31;19.37;;;11.43;;
2175;SDS011;1094;49.902;10.876;2022-10-18T00:59:57;12.60;;;11.07;;
2175;SDS011;1094;49.902;10.876;2022-10-18T01:02:23;16.20;;;11.40;;
2175;SDS011;1094;49.902;10.876;2022-10-18T01:04:50;13.37;;;9.47;;
2175;SDS011;1094;49.902;10.876;2022-10-18T01:07:24;18.70;;;10.00;;
2175;SDS011;1094;49.902;10.876;2022-10-18T01:12:49;13.30;;;9.57;;
2175;SDS011;1094;49.902;10.876;2022-10-18T01:15:25;15.93;;;9.90;;
2175;SDS011;1094;49.902;10.876;2022-10-18T01:22:59;14.67;;;11.03;;
2175;SDS011;1094;49.902;10.876;2022-10-18T01:25:39;15.17;;;10.23;;
2175;SDS011;1094;49.902;10.876;2022-10-18T01:35:32;12.77;;;9.93;;
2175;SDS011;1094;49.902;10.876;2022-10-18T01:37:59;16.70;;;10.30;;
2175;SDS011;1094;49.902;10.876;2022-10-18T01:40:27;13.63;;;10.90;;
2175;SDS011;1094;49.902;10.876;2022-10-18T01:42:54;17.57;;;11.20;;
2175;SDS011;1094;49.902;10.876;2022-10-18T01:45:21;14.47;;;11.10;;
2175;SDS011;1094;49.902;10.876;2022-10-18T01:47:48;11.20;;;10.07;;
2175;SDS011;1094;49.902;10.876;2022-10-18T01:50:14;13.47;;;10.10;;
2175;SDS011;1094;49.902;10.876;2022-10-18T01:52:50;12.67;;;10.60;;
2175;SDS011;1094;49.902;10.876;2022-10-18T01:55:16;13.53;;;10.13;;
2175;SDS011;1094;49.902;10.876;2022-10-18T01:57:46;13.50;;;11.13;;
2175;SDS011;1094;49.902;10.876;2022-10-18T02:00:23;15.47;;;10.37;;
2175;SDS011;1094;49.902;10.876;2022-10-18T02:02:53;14.20;;;9.50;;
2175;SDS011;1094;49.902;10.876;2022-10-18T02:07:52;14.57;;;10.20;;
2175;SDS011;1094;49.902;10.876;2022-10-18T02:10:23;11.00;;;9.20;;
2175;SDS011;1094;49.902;10.876;2022-10-18T02:12:51;12.33;;;9.30;;
2175;SDS011;1094;49.902;10.876;2022-10-18T02:15:20;12.40;;;8.93;;
2175;SDS011;1094;49.902;10.876;2022-10-18T02:17:47;14.37;;;10.07;;
2175;SDS011;1094;49.902;10.876;2022-10-18T02:20:13;16.20;;;9.10;;
2175;SDS011;1094;49.902;10.876;2022-10-18T02:22:41;11.83;;;9.70;;
2175;SDS011;1094;49.902;10.876;2022-10-18T02:25:12;11.63;;;9.23;;
2175;SDS011;1094;49.902;10.876;2022-10-18T02:27:39;15.80;;;10.90;;
2175;SDS011;1094;49.902;10.876;2022-10-18T02:30:05;13.60;;;10.30;;
2175;SDS011;1094;49.902;10.876;2022-10-18T02:32:39;12.30;;;10.20;;
2175;SDS011;1094;49.902;10.876;2022-10-18T02:35:08;13.27;;;10.13;;
2175;SDS011;1094;49.902;10.876;2022-10-18T02:37:36;13.27;;;10.40;;
2175;SDS011;1094;49.902;10.876;2022-10-18T02:40:03;14.70;;;10.20;;
2175;SDS011;1094;49.902;10.876;2022-10-18T02:42:38;11.37;;;8.57;;
2175;SDS011;1094;49.902;10.876;2022-10-18T02:45:05;13.57;;;10.27;;
2175;SDS011;1094;49.902;10.876;2022-10-18T02:47:31;12.80;;;11.17;;
2175;SDS011;1094;49.902;10.876;2022-10-18T02:49:57;13.23;;;10.93;;
2175;SDS011;1094;49.902;10.876;2022-10-18T02:52:23;18.07;;;11.10;;
2175;SDS011;1094;49.902;10.876;2022-10-18T02:54:49;14.20;;;10.70;;
2175;SDS011;1094;49.902;10.876;2022-10-18T02:57:15;12.27;;;9.70;;
2175;SDS011;1094;49.902;10.876;2022-10-18T02:59:41;12.33;;;9.53;;
2175;SDS011;1094;49.902;10.876;2022-10-18T03:02:07;13.40;;;10.10;;
2175;SDS011;1094;49.902;10.876;2022-10-18T03:04:33;12.47;;;8.90;;
2175;SDS011;1094;49.902;10.876;2022-10-18T03:06:59;16.50;;;9.70;;
2175;SDS011;1094;49.902;10.876;2022-10-18T03:09:25;15.33;;;11.30;;
2175;SDS011;1094;49.902;10.876;2022-10-18T03:11:51;16.70;;;10.53;;
2175;SDS011;1094;49.902;10.876;2022-10-18T03:14:17;14.07;;;10.73;;
2175;SDS011;1094;49.902;10.876;2022-10-18T03:16:43;11.30;;;9.20;;
2175;SDS011;1094;49.902;10.876;2022-10-18T03:19:09;11.97;;;9.40;;
2175;SDS011;1094;49.902;10.876;2022-10-18T03:21:35;11.50;;;10.30;;
2175;SDS011;1094;49.902;10.876;2022-10-18T03:24:01;12.80;;;10.23;;
2175;SDS011;1094;49.902;10.876;2022-10-18T03:26:27;12.17;;;9.03;;
2175;SDS011;1094;49.902;10.876;2022-10-18T03:28:53;11.00;;;9.90;;
2175;SDS011;1094;49.902;10.876;2022-10-18T03:31:19;11.10;;;9.23;;
2175;SDS011;1094;49.902;10.876;2022-10-18T03:33:45;12.83;;;9.87;;
2175;SDS011;1094;49.902;10.876;2022-10-18T03:36:11;15.03;;;10.40;;
2175;SDS011;1094;49.902;10.876;2022-10-18T03:38:37;17.03;;;10.33;;
2175;SDS011;1094;49.902;10.876;2022-10-18T03:41:03;10.83;;;9.10;;
2175;SDS011;1094;49.902;10.876;2022-10-18T03:43:29;10.30;;;8.73;;
2175;SDS011;1094;49.902;10.876;2022-10-18T03:45:56;10.60;;;8.73;;
2175;SDS011;1094;49.902;10.876;2022-10-18T03:48:22;12.53;;;9.33;;
2175;SDS011;1094;49.902;10.876;2022-10-18T03:50:48;14.10;;;10.43;;
2175;SDS011;1094;49.902;10.876;2022-10-18T03:53:14;12.27;;;9.40;;
2175;SDS011;1094;49.902;10.876;2022-10-18T03:55:40;11.93;;;10.37;;
2175;SDS011;1094;49.902;10.876;2022-10-18T03:58:06;13.73;;;9.90;;
2175;SDS011;1094;49.902;10.876;2022-10-18T04:00:32;11.00;;;9.43;;
2175;SDS011;1094;49.902;10.876;2022-10-18T04:02:58;11.50;;;9.40;;
2175;SDS011;1094;49.902;10.876;2022-10-18T04:05:24;16.53;;;10.20;;
2175;SDS011;1094;49.902;10.876;2022-10-18T04:07:55;16.00;;;10.27;;
2175;SDS011;1094;49.902;10.876;2022-10-18T04:10:21;15.63;;;10.90;;
2175;SDS011;1094;49.902;10.876;2022-10-18T04:12:47;12.67;;;10.57;;
2175;SDS011;1094;49.902;10.876;2022-10-18T04:15:13;16.00;;;10.33;;
2175;SDS011;1094;49.902;10.876;2022-10-18T04:17:39;20.30;;;10.57;;
2175;SDS011;1094;49.902;10.876;2022-10-18T04:20:06;19.20;;;10.83;;
2175;SDS011;1094;49.902;10.876;2022-10-18T04:22:32;12.30;;;11.03;;
2175;SDS011;1094;49.902;10.876;2022-10-18T04:24:58;14.53;;;11.10;;
2175;SDS011;1094;49.902;10.876;2022-10-18T04:27:24;15.57;;;10.43;;
2175;SDS011;1094;49.902;10.876;2022-10-18T04:29:50;16.27;;;10.10;;
2175;SDS011;1094;49.902;10.876;2022-10-18T04:32:16;14.67;;;11.70;;
2175;SDS011;1094;49.902;10.876;2022-10-18T04:34:42;20.83;;;11.43;;
2175;SDS011;1094;49.902;10.876;2022-10-18T04:37:08;15.97;;;10.43;;
2175;SDS011;1094;49.902;10.876;2022-10-18T04:39:34;12.67;;;9.90;;
2175;SDS011;1094;49.902;10.876;2022-10-18T04:42:00;16.87;;;10.93;;
2175;SDS011;1094;49.902;10.876;2022-10-18T04:44:26;12.63;;;10.90;;
2175;SDS011;1094;49.902;10.876;2022-10-18T04:46:52;16.63;;;11.00;;
2175;SDS011;1094;49.902;10.876;2022-10-18T04:49:18;17.37;;;11.50;;
2175;SDS011;1094;49.902;10.876;2022-10-18T04:51:44;11.80;;;9.00;;
2175;SDS011;1094;49.902;10.876;2022-10-18T04:54:10;10.90;;;9.70;;
2175;SDS011;1094;49.902;10.876;2022-10-18T04:56:37;15.97;;;10.00;;
2175;SDS011;1094;49.902;10.876;2022-10-18T04:59:03;16.00;;;9.77;;
2175;SDS011;1094;49.902;10.876;2022-10-18T05:01:29;16.33;;;10.97;;
2175;SDS011;1094;49.902;10.876;2022-10-18T05:03:55;16.63;;;10.67;;
2175;SDS011;1094;49.902;10.876;2022-10-18T05:06:21;17.00;;;10.37;;
2175;SDS011;1094;49.902;10.876;2022-10-18T05:08:47;16.23;;;10.73;;
2175;SDS011;1094;49.902;10.876;2022-10-18T05:11:13;13.57;;;10.77;;
2175;SDS011;1094;49.902;10.876;2022-10-18T05:13:40;13.53;;;10.47;;
2175;SDS011;1094;49.902;10.876;2022-10-18T05:16:08;13.60;;;10.60;;
2175;SDS011;1094;49.902;10.876;2022-10-18T05:18:35;12.70;;;10.07;;
2175;SDS011;1094;49.902;10.876;2022-10-18T05:21:01;15.37;;;10.67;;
2175;SDS011;1094;49.902;10.876;2022-10-18T05:23:27;14.07;;;10.03;;
2175;SDS011;1094;49.902;10.876;2022-10-18T05:25:53;15.20;;;10.23;;
2175;SDS011;1094;49.902;10.876;2022-10-18T05:28:19;17.30;;;10.77;;
2175;SDS011;1094;49.902;10.876;2022-10-18T05:30:46;14.60;;;10.27;;
2175;SDS011;1094;49.902;10.876;2022-10-18T05:33:12;15.23;;;11.20;;
2175;SDS011;1094;49.902;10.876;2022-10-18T05:35:38;13.60;;;10.27;;
2175;SDS011;1094;49.902;10.876;2022-10-18T05:38:04;11.83;;;10.20;;
2175;SDS011;1094;49.902;10.876;2022-10-18T05:40:31;13.30;;;10.90;;
2175;SDS011;1094;49.902;10.876;2022-10-18T05:42:57;18.83;;;10.40;;
2175;SDS011;1094;49.902;10.876;2022-10-18T05:45:23;14.13;;;10.33;;
2175;SDS011;1094;49.902;10.876;2022-10-18T05:47:49;14.13;;;10.17;;
2175;SDS011;1094;49.902;10.876;2022-10-18T05:50:15;14.17;;;11.13;;
2175;SDS011;1094;49.902;10.876;2022-10-18T05:52:41;17.63;;;11.53;;
2175;SDS011;1094;49.902;10.876;2022-10-18T05:55:07;16.47;;;11.23;;
2175;SDS011;1094;49.902;10.876;2022-10-18T05:57:33;15.63;;;11.40;;
2175;SDS011;1094;49.902;10.876;2022-10-18T06:00:00;26.17;;;14.27;;
2175;SDS011;1094;49.902;10.876;2022-10-18T06:02:26;16.73;;;10.97;;
2175;SDS011;1094;49.902;10.876;2022-10-18T06:04:52;17.03;;;10.60;;
2175;SDS011;1094;49.902;10.876;2022-10-18T06:07:18;17.63;;;10.60;;
2175;SDS011;1094;49.902;10.876;2022-10-18T06:09:44;13.63;;;10.90;;
2175;SDS011;1094;49.902;10.876;2022-10-18T06:12:10;12.87;;;10.40;;
2175;SDS011;1094;49.902;10.876;2022-10-18T06:14:36;16.67;;;10.80;;
2175;SDS011;1094;49.902;10.876;2022-10-18T06:17:02;16.50;;;10.60;;
2175;SDS011;1094;49.902;10.876;2022-10-18T06:19:28;14.87;;;11.00;;
2175;SDS011;1094;49.902;10.876;2022-10-18T06:21:54;16.60;;;11.03;;
2175;SDS011;1094;49.902;10.876;2022-10-18T06:24:20;15.37;;;11.30;;
2175;SDS011;1094;49.902;10.876;2022-10-18T06:26:46;13.93;;;10.37;;
2175;SDS011;1094;49.902;10.876;2022-10-18T06:29:13;12.43;;;10.10;;
2175;SDS011;1094;49.902;10.876;2022-10-18T06:31:39;15.77;;;9.70;;
2175;SDS011;1094;49.902;10.876;2022-10-18T06:34:05;12.40;;;10.80;;
2175;SDS011;1094;49.902;10.876;2022-10-18T06:36:31;18.70;;;10.57;;
2175;SDS011;1094;49.902;10.876;2022-10-18T06:38:57;12.70;;;10.90;;
2175;SDS011;1094;49.902;10.876;2022-10-18T06:41:24;11.43;;;9.47;;
2175;SDS011;1094;49.902;10.876;2022-10-18T06:43:50;17.80;;;9.90;;
2175;SDS011;1094;49.902;10.876;2022-10-18T06:46:17;12.77;;;10.20;;
2175;SDS011;1094;49.902;10.876;2022-10-18T06:48:43;15.63;;;10.23;;
2175;SDS011;1094;49.902;10.876;2022-10-18T06:51:09;15.33;;;10.13;;
2175;SDS011;1094;49.902;10.876;2022-10-18T06:53:38;12.80;;;10.10;;
2175;SDS011;1094;49.902;10.876;2022-10-18T06:56:05;13.73;;;9.90;;
2175;SDS011;1094;49.902;10.876;2022-10-18T06:58:32;16.93;;;11.70;;
2175;SDS011;1094;49.902;10.876;2022-10-18T07:01:03;20.13;;;10.97;;
2175;SDS011;1094;49.902;10.876;2022-10-18T07:03:29;22.77;;;12.23;;
2175;SDS011;1094;49.902;10.876;2022-10-18T07:05:58;10.07;;;9.07;;
2175;SDS011;1094;49.902;10.876;2022-10-18T07:08:25;13.67;;;10.40;;
2175;SDS011;1094;49.902;10.876;2022-10-18T07:10:51;11.80;;;8.83;;
2175;SDS011;1094;49.902;10.876;2022-10-18T07:13:18;17.50;;;10.43;;
2175;SDS011;1094;49.902;10.876;2022-10-18T07:15:44;13.63;;;8.50;;
2175;SDS011;1094;49.902;10.876;2022-10-18T07:18:10;16.00;;;9.57;;
2175;SDS011;1094;49.902;10.876;2022-10-18T07:20:36;13.97;;;9.20;;
2175;SDS011;1094;49.902;10.876;2022-10-18T07:23:02;13.20;;;8.90;;
2175;SDS011;1094;49.902;10.876;2022-10-18T07:25:29;10.77;;;8.20;;
2175;SDS011;1094;49.902;10.876;2022-10-18T07:27:55;9.03;;;7.30;;
2175;SDS011;1094;49.902;10.876;2022-10-18T07:30:21;9.43;;;6.80;;
2175;SDS011;1094;49.902;10.876;2022-10-18T07:32:49;8.27;;;7.37;;
2175;SDS011;1094;49.902;10.876;2022-10-18T07:35:15;11.73;;;6.83;;
2175;SDS011;1094;49.902;10.876;2022-10-18T07:37:41;10.33;;;6.40;;
2175;SDS011;1094;49.902;10.876;2022-10-18T07:40:07;11.70;;;6.97;;
2175;SDS011;1094;49.902;10.876;2022-10-18T07:42:35;6.60;;;6.00;;
2175;SDS011;1094;49.902;10.876;2022-10-18T07:45:01;9.80;;;6.77;;
2175;SDS011;1094;49.902;10.876;2022-10-18T07:47:27;13.73;;;7.67;;
2175;SDS011;1094;49.902;10.876;2022-10-18T07:49:53;7.33;;;5.80;;
2175;SDS011;1094;49.902;10.876;2022-10-18T07:52:19;7.00;;;5.30;;
2175;SDS011;1094;49.902;10.876;2022-10-18T07:54:45;8.57;;;6.37;;
2175;SDS011;1094;49.902;10.876;2022-10-18T07:57:10;8.57;;;5.40;;
2175;SDS011;1094;49.902;10.876;2022-10-18T07:59:36;6.53;;;5.30;;
2175;SDS011;1094;49.902;10.876;2022-10-18T08:02:03;9.20;;;5.47;;
2175;SDS011;1094;49.902;10.876;2022-10-18T08:04:28;6.10;;;4.70;;
2175;SDS011;1094;49.902;10.876;2022-10-18T08:06:54;8.03;;;5.13;;
2175;SDS011;1094;49.902;10.876;2022-10-18T08:09:20;9.60;;;6.17;;
2175;SDS011;1094;49.902;10.876;2022-10-18T08:11:46;10.10;;;6.00;;
2175;SDS011;1094;49.902;10.876;2022-10-18T08:14:12;12.80;;;6.63;;
2175;SDS011;1094;49.902;10.876;2022-10-18T08:16:39;7.63;;;6.07;;
2175;SDS011;1094;49.902;10.876;2022-10-18T08:19:05;7.37;;;5.97;;
2175;SDS011;1094;49.902;10.876;2022-10-18T08:21:31;7.00;;;5.73;;
2175;SDS011;1094;49.902;10.876;2022-10-18T08:23:57;9.03;;;7.00;;
2175;SDS011;1094;49.902;10.876;2022-10-18T08:26:23;10.47;;;6.00;;
2175;SDS011;1094;49.902;10.876;2022-10-18T08:28:49;9.33;;;6.00;;
2175;SDS011;1094;49.902;10.876;2022-10-18T08:31:15;9.43;;;6.73;;
2175;SDS011;1094;49.902;10.876;2022-10-18T08:33:42;9.57;;;7.30;;
2175;SDS011;1094;49.902;10.876;2022-10-18T08:36:09;10.87;;;7.10;;
2175;SDS011;1094;49.902;10.876;2022-10-18T08:38:37;11.07;;;7.43;;
2175;SDS011;1094;49.902;10.876;2022-10-18T08:43:50;7.43;;;5.90;;
2175;SDS011;1094;49.902;10.876;2022-10-18T08:46:20;8.63;;;6.10;;
2175;SDS011;1094;49.902;10.876;2022-10-18T08:48:47;7.70;;;6.70;;
2175;SDS011;1094;49.902;10.876;2022-10-18T08:51:21;7.40;;;6.27;;
2175;SDS011;1094;49.902;10.876;2022-10-18T08:53:54;7.80;;;6.80;;
2175;SDS011;1094;49.902;10.876;2022-10-18T08:56:21;6.63;;;5.87;;
2175;SDS011;1094;49.902;10.876;2022-10-18T08:58:48;6.70;;;6.00;;
2175;SDS011;1094;49.902;10.876;2022-10-18T09:01:19;9.33;;;5.87;;
2175;SDS011;1094;49.902;10.876;2022-10-18T09:08:57;7.80;;;5.70;;
2175;SDS011;1094;49.902;10.876;2022-10-18T09:19:26;9.00;;;6.63;;
2175;SDS011;1094;49.902;10.876;2022-10-18T09:21:58;12.80;;;6.97;;
2175;SDS011;1094;49.902;10.876;2022-10-18T09:27:07;9.77;;;6.70;;
2175;SDS011;1094;49.902;10.876;2022-10-18T09:34:38;8.77;;;6.47;;
2175;SDS011;1094;49.902;10.876;2022-10-18T09:37:10;15.10;;;6.40;;
2175;SDS011;1094;49.902;10.876;2022-10-18T09:39:37;13.60;;;7.63;;
2175;SDS011;1094;49.902;10.876;2022-10-18T09:42:46;10.00;;;6.70;;
2175;SDS011;1094;49.902;10.876;2022-10-18T09:45:03;6.93;;;6.23;;
2175;SDS011;1094;49.902;10.876;2022-10-18T09:47:36;7.70;;;6.80;;
2175;SDS011;1094;49.902;10.876;2022-10-18T09:50:07;8.97;;;6.93;;
2175;SDS011;1094;49.902;10.876;2022-10-18T09:52:40;8.80;;;6.90;;
2175;SDS011;1094;49.902;10.876;2022-10-18T09:55:23;9.73;;;7.20;;
2175;SDS011;1094;49.902;10.876;2022-10-18T09:57:55;14.47;;;6.90;;
2175;SDS011;1094;49.902;10.876;2022-10-18T10:00:24;7.70;;;6.50;;
2175;SDS011;1094;49.902;10.876;2022-10-18T10:02:51;10.17;;;6.80;;
2175;SDS011;1094;49.902;10.876;2022-10-18T10:05:17;7.90;;;7.07;;
2175;SDS011;1094;49.902;10.876;2022-10-18T10:07:45;8.77;;;6.97;;
2175;SDS011;1094;49.902;10.876;2022-10-18T10:10:24;10.03;;;6.13;;
2175;SDS011;1094;49.902;10.876;2022-10-18T10:15:35;8.40;;;5.73;;
2175;SDS011;1094;49.902;10.876;2022-10-18T10:18:02;16.43;;;6.50;;
2175;SDS011;1094;49.902;10.876;2022-10-18T10:22:55;7.90;;;5.80;;
2175;SDS011;1094;49.902;10.876;2022-10-18T10:25:33;8.70;;;6.20;;
2175;SDS011;1094;49.902;10.876;2022-10-18T10:28:06;14.53;;;7.17;;
2175;SDS011;1094;49.902;10.876;2022-10-18T10:30:36;7.07;;;5.50;;
2175;SDS011;1094;49.902;10.876;2022-10-18T10:33:03;13.03;;;7.37;;
2175;SDS011;1094;49.902;10.876;2022-10-18T10:35:36;10.70;;;6.50;;
2175;SDS011;1094;49.902;10.876;2022-10-18T10:38:03;8.33;;;6.57;;
2175;SDS011;1094;49.902;10.876;2022-10-18T10:40:30;7.77;;;6.70;;
2175;SDS011;1094;49.902;10.876;2022-10-18T10:45:25;7.40;;;6.60;;
2175;SDS011;1094;49.902;10.876;2022-10-18T10:47:51;12.50;;;6.70;;
2175;SDS011;1094;49.902;10.876;2022-10-18T10:50:23;10.97;;;6.70;;
2175;SDS011;1094;49.902;10.876;2022-10-18T10:52:49;9.20;;;6.30;;
2175;SDS011;1094;49.902;10.876;2022-10-18T10:55:16;13.03;;;6.10;;
2175;SDS011;1094;49.902;10.876;2022-10-18T10:57:47;6.10;;;5.60;;
2175;SDS011;1094;49.902;10.876;2022-10-18T11:03:05;7.27;;;6.23;;
2175;SDS011;1094;49.902;10.876;2022-10-18T11:05:31;8.40;;;6.00;;
2175;SDS011;1094;49.902;10.876;2022-10-18T11:08:07;6.37;;;5.60;;
2175;SDS011;1094;49.902;10.876;2022-10-18T11:10:38;7.27;;;5.67;;
2175;SDS011;1094;49.902;10.876;2022-10-18T11:15:48;5.77;;;4.77;;
2175;SDS011;1094;49.902;10.876;2022-10-18T11:20:55;6.23;;;4.60;;
2175;SDS011;1094;49.902;10.876;2022-10-18T11:23:32;8.10;;;4.73;;
2175;SDS011;1094;49.902;10.876;2022-10-18T11:31:21;7.90;;;6.17;;
2175;SDS011;1094;49.902;10.876;2022-10-18T11:39:12;8.17;;;5.70;;
2175;SDS011;1094;49.902;10.876;2022-10-18T11:51:53;10.30;;;5.57;;
2175;SDS011;1094;49.902;10.876;2022-10-18T11:54:29;7.80;;;5.87;;
2175;SDS011;1094;49.902;10.876;2022-10-18T11:59:58;11.80;;;5.13;;
2175;SDS011;1094;49.902;10.876;2022-10-18T12:05:08;6.73;;;5.23;;
2175;SDS011;1094;49.902;10.876;2022-10-18T12:07:35;9.90;;;5.53;;
2175;SDS011;1094;49.902;10.876;2022-10-18T12:10:03;7.27;;;5.30;;
2175;SDS011;1094;49.902;10.876;2022-10-18T12:12:31;5.63;;;4.83;;
2175;SDS011;1094;49.902;10.876;2022-10-18T12:14:58;4.40;;;4.00;;
2175;SDS011;1094;49.902;10.876;2022-10-18T12:19:59;6.03;;;4.13;;
2175;SDS011;1094;49.902;10.876;2022-10-18T12:22:29;8.33;;;4.57;;
2175;SDS011;1094;49.902;10.876;2022-10-18T12:24:57;5.23;;;4.73;;
2175;SDS011;1094;49.902;10.876;2022-10-18T12:27:27;4.70;;;4.30;;
2175;SDS011;1094;49.902;10.876;2022-10-18T12:30:08;6.07;;;4.20;;
2175;SDS011;1094;49.902;10.876;2022-10-18T12:32:39;6.80;;;4.87;;
2175;SDS011;1094;49.902;10.876;2022-10-18T12:35:06;5.83;;;4.70;;
2175;SDS011;1094;49.902;10.876;2022-10-18T12:40:15;4.00;;;3.60;;
2175;SDS011;1094;49.902;10.876;2022-10-18T12:42:46;3.80;;;3.50;;
2175;SDS011;1094;49.902;10.876;2022-10-18T12:47:38;5.13;;;3.60;;
2175;SDS011;1094;49.902;10.876;2022-10-18T12:50:06;6.80;;;3.47;;
2175;SDS011;1094;49.902;10.876;2022-10-18T12:52:32;5.13;;;4.53;;
2175;SDS011;1094;49.902;10.876;2022-10-18T12:57:27;8.30;;;3.80;;
2175;SDS011;1094;49.902;10.876;2022-10-18T13:00:50;4.60;;;3.40;;
2175;SDS011;1094;49.902;10.876;2022-10-18T13:18:48;4.60;;;3.90;;
2175;SDS011;1094;49.902;10.876;2022-10-18T13:21:28;5.93;;;3.70;;
2175;SDS011;1094;49.902;10.876;2022-10-18T13:32:03;5.40;;;3.30;;
2175;SDS011;1094;49.902;10.876;2022-10-18T13:34:34;3.50;;;3.20;;
2175;SDS011;1094;49.902;10.876;2022-10-18T13:39:34;3.80;;;3.50;;
2175;SDS011;1094;49.902;10.876;2022-10-18T13:52:05;5.13;;;3.30;;
2175;SDS011;1094;49.902;10.876;2022-10-18T13:58:01;4.93;;;3.37;;
2175;SDS011;1094;49.902;10.876;2022-10-18T14:03:11;4.50;;;3.73;;
2175;SDS011;1094;49.902;10.876;2022-10-18T14:08:17;10.17;;;4.53;;
2175;SDS011;1094;49.902;10.876;2022-10-18T14:10:49;4.80;;;3.33;;
2175;SDS011;1094;49.902;10.876;2022-10-18T14:13:19;5.13;;;4.00;;
2175;SDS011;1094;49.902;10.876;2022-10-18T14:15:47;5.20;;;4.10;;
2175;SDS011;1094;49.902;10.876;2022-10-18T14:18:15;5.20;;;3.87;;
2175;SDS011;1094;49.902;10.876;2022-10-18T14:20:53;4.03;;;3.73;;
2175;SDS011;1094;49.902;10.876;2022-10-18T14:23:24;5.57;;;3.70;;
2175;SDS011;1094;49.902;10.876;2022-10-18T14:25:55;5.50;;;3.67;;
2175;SDS011;1094;49.902;10.876;2022-10-18T14:28:30;3.63;;;3.33;;
2175;SDS011;1094;49.902;10.876;2022-10-18T14:30:59;6.10;;;4.00;;
2175;SDS011;1094;49.902;10.876;2022-10-18T14:33:27;4.40;;;3.37;;
2175;SDS011;1094;49.902;10.876;2022-10-18T14:35:59;4.60;;;3.80;;
2175;SDS011;1094;49.902;10.876;2022-10-18T14:38:25;6.20;;;4.13;;
2175;SDS011;1094;49.902;10.876;2022-10-18T14:41:03;6.60;;;4.03;;
2175;SDS011;1094;49.902;10.876;2022-10-18T14:43:29;4.80;;;3.73;;
2175;SDS011;1094;49.902;10.876;2022-10-18T14:46:02;4.83;;;4.13;;
2175;SDS011;1094;49.902;10.876;2022-10-18T14:48:32;8.53;;;4.73;;
2175;SDS011;1094;49.902;10.876;2022-10-18T14:50:58;4.60;;;3.97;;
2175;SDS011;1094;49.902;10.876;2022-10-18T14:53:26;8.77;;;4.00;;
2175;SDS011;1094;49.902;10.876;2022-10-18T14:55:57;5.03;;;3.90;;
2175;SDS011;1094;49.902;10.876;2022-10-18T14:58:25;5.33;;;4.13;;
2175;SDS011;1094;49.902;10.876;2022-10-18T15:00:51;5.17;;;3.93;;
2175;SDS011;1094;49.902;10.876;2022-10-18T15:03:18;6.17;;;4.30;;
2175;SDS011;1094;49.902;10.876;2022-10-18T15:06:17;5.40;;;4.27;;
2175;SDS011;1094;49.902;10.876;2022-10-18T15:08:37;5.50;;;4.17;;
2175;SDS011;1094;49.902;10.876;2022-10-18T15:11:04;8.53;;;4.43;;
2175;SDS011;1094;49.902;10.876;2022-10-18T15:13:31;4.70;;;4.13;;
2175;SDS011;1094;49.902;10.876;2022-10-18T15:15:57;4.73;;;4.33;;
2175;SDS011;1094;49.902;10.876;2022-10-18T15:18:24;9.73;;;4.30;;
2175;SDS011;1094;49.902;10.876;2022-10-18T15:23:35;8.33;;;4.43;;
2175;SDS011;1094;49.902;10.876;2022-10-18T15:26:02;9.33;;;5.00;;
2175;SDS011;1094;49.902;10.876;2022-10-18T15:28:30;4.33;;;3.93;;
2175;SDS011;1094;49.902;10.876;2022-10-18T15:30:57;4.63;;;4.10;;
2175;SDS011;1094;49.902;10.876;2022-10-18T15:33:25;5.47;;;4.43;;
2175;SDS011;1094;49.902;10.876;2022-10-18T15:35:52;5.03;;;4.57;;
2175;SDS011;1094;49.902;10.876;2022-10-18T15:38:25;7.47;;;5.00;;
2175;SDS011;1094;49.902;10.876;2022-10-18T15:40:51;6.57;;;4.87;;
2175;SDS011;1094;49.902;10.876;2022-10-18T15:45:59;5.23;;;4.30;;
2175;SDS011;1094;49.902;10.876;2022-10-18T15:50:57;6.40;;;4.43;;
2175;SDS011;1094;49.902;10.876;2022-10-18T15:53:40;4.90;;;4.40;;
2175;SDS011;1094;49.902;10.876;2022-10-18T15:58:51;5.97;;;5.37;;
2175;SDS011;1094;49.902;10.876;2022-10-18T16:01:20;5.50;;;5.00;;
2175;SDS011;1094;49.902;10.876;2022-10-18T16:03:47;5.93;;;4.70;;
2175;SDS011;1094;49.902;10.876;2022-10-18T16:06:14;8.03;;;4.80;;
2175;SDS011;1094;49.902;10.876;2022-10-18T16:08:50;5.80;;;5.10;;
2175;SDS011;1094;49.902;10.876;2022-10-18T16:11:17;5.50;;;4.83;;
2175;SDS011;1094;49.902;10.876;2022-10-18T16:13:43;7.00;;;5.50;;
2175;SDS011;1094;49.902;10.876;2022-10-18T16:16:11;7.00;;;5.50;;
2175;SDS011;1094;49.902;10.876;2022-10-18T16:18:38;8.70;;;5.77;;
2175;SDS011;1094;49.902;10.876;2022-10-18T16:21:04;6.83;;;6.13;;
2175;SDS011;1094;49.902;10.876;2022-10-18T16:23:30;10.23;;;6.90;;
2175;SDS011;1094;49.902;10.876;2022-10-18T16:25:56;7.30;;;6.60;;
2175;SDS011;1094;49.902;10.876;2022-10-18T16:28:22;8.27;;;7.13;;
2175;SDS011;1094;49.902;10.876;2022-10-18T16:30:55;8.43;;;7.43;;
2175;SDS011;1094;49.902;10.876;2022-10-18T16:33:22;8.80;;;6.90;;
2175;SDS011;1094;49.902;10.876;2022-10-18T16:35:48;10.30;;;8.87;;
2175;SDS011;1094;49.902;10.876;2022-10-18T16:38:19;9.63;;;7.93;;
2175;SDS011;1094;49.902;10.876;2022-10-18T16:40:48;8.80;;;8.00;;
2175;SDS011;1094;49.902;10.876;2022-10-18T16:43:14;10.27;;;9.17;;
2175;SDS011;1094;49.902;10.876;2022-10-18T16:45:40;11.73;;;8.97;;
2175;SDS011;1094;49.902;10.876;2022-10-18T16:48:07;9.70;;;8.80;;
2175;SDS011;1094;49.902;10.876;2022-10-18T16:50:33;9.27;;;8.13;;
2175;SDS011;1094;49.902;10.876;2022-10-18T16:52:59;11.17;;;9.80;;
2175;SDS011;1094;49.902;10.876;2022-10-18T16:55:25;10.90;;;7.90;;
2175;SDS011;1094;49.902;10.876;2022-10-18T16:57:52;9.83;;;7.90;;
2175;SDS011;1094;49.902;10.876;2022-10-18T17:00:19;8.37;;;7.57;;
2175;SDS011;1094;49.902;10.876;2022-10-18T17:02:46;9.53;;;8.57;;
2175;SDS011;1094;49.902;10.876;2022-10-18T17:05:12;15.23;;;9.87;;
2175;SDS011;1094;49.902;10.876;2022-10-18T17:07:38;11.53;;;9.73;;
2175;SDS011;1094;49.902;10.876;2022-10-18T17:10:05;11.50;;;9.70;;
2175;SDS011;1094;49.902;10.876;2022-10-18T17:12:31;11.47;;;9.63;;
2175;SDS011;1094;49.902;10.876;2022-10-18T17:14:57;11.13;;;9.53;;
2175;SDS011;1094;49.902;10.876;2022-10-18T17:17:23;10.70;;;9.60;;
2175;SDS011;1094;49.902;10.876;2022-10-18T17:19:49;12.30;;;9.67;;
2175;SDS011;1094;49.902;10.876;2022-10-18T17:22:15;15.50;;;9.87;;